createdAt,value
2019-02-08T00:02:00.559Z,95001.06
2019-02-08T00:04:30.929Z,95005.55
2019-02-08T00:07:01.263Z,95006.21
2019-02-08T00:09:31.939Z,95008.45
2019-02-08T00:12:02.268Z,95007.33
2019-02-08T00:14:33.007Z,95002.27
2019-02-08T00:17:03.903Z,95006.90
2019-02-08T00:19:35.166Z,95001.80
2019-02-08T00:22:07.798Z,95001.63
2019-02-08T00:24:38.395Z,94996.70
2019-02-08T00:27:08.783Z,94995.34
2019-02-08T00:29:39.644Z,94993.56
2019-02-08T00:32:09.996Z,94995.11
2019-02-08T00:34:40.251Z,94996.39
2019-02-08T00:37:10.919Z,94994.46
2019-02-08T00:39:41.666Z,94993.55
2019-02-08T00:42:11.937Z,94988.35
2019-02-08T00:44:42.559Z,94990.33
2019-02-08T00:47:12.826Z,94991.05
2019-02-08T00:49:44.442Z,94986.56
2019-02-08T00:52:15.666Z,94987.98
2019-02-08T00:54:45.969Z,94988.39
2019-02-08T00:57:16.270Z,94985.95
2019-02-08T00:59:47.228Z,94980.52
2019-02-08T01:02:17.496Z,94981.39
2019-02-08T01:04:47.794Z,94979.29
2019-02-08T01:07:18.733Z,94977.14
2019-02-08T01:09:49.245Z,94973.13
2019-02-08T01:12:19.527Z,94968.77
2019-02-08T01:14:50.249Z,94972.39
2019-02-08T01:17:20.844Z,94972.34
2019-02-08T01:19:51.357Z,94974.42
2019-02-08T01:22:22.111Z,94971.56
2019-02-08T01:24:52.756Z,94977.31
2019-02-08T01:27:23.038Z,94981.62
2019-02-08T01:29:53.469Z,94975.12
2019-02-08T01:32:24.229Z,94975.00
2019-02-08T01:34:54.544Z,94968.86
2019-02-08T01:37:24.851Z,94969.84
2019-02-08T01:39:55.654Z,94972.23
2019-02-08T01:42:25.953Z,94975.20
2019-02-08T01:44:56.234Z,94971.92
2019-02-08T01:47:26.997Z,94968.86
2019-02-08T01:49:57.573Z,94968.31
2019-02-08T01:52:28.266Z,94965.45
2019-02-08T01:54:58.590Z,94963.95
2019-02-08T01:57:28.870Z,94967.98
2019-02-08T01:59:59.684Z,94966.77
2019-02-08T02:02:30.617Z,94972.47
2019-02-08T02:05:01.188Z,94962.53
2019-02-08T02:07:31.751Z,94967.30
2019-02-08T02:10:02.289Z,94973.00
2019-02-08T02:12:32.576Z,94973.14
2019-02-08T02:15:03.393Z,94970.45
2019-02-08T02:17:33.767Z,94975.14
2019-02-08T02:20:05.566Z,94974.27
2019-02-08T02:22:35.831Z,94965.80
2019-02-08T02:25:07.405Z,94961.93
2019-02-08T02:27:37.758Z,94962.50
2019-02-08T02:30:10.176Z,94964.91
2019-02-08T02:32:40.436Z,94958.36
2019-02-08T02:35:12.450Z,94966.13
2019-02-08T02:37:43.369Z,94961.78
2019-02-08T02:40:14.425Z,94955.84
2019-02-08T02:42:45.451Z,94951.17
2019-02-08T02:45:19.529Z,94945.31
2019-02-08T02:47:50.014Z,94951.44
2019-02-08T02:50:21.244Z,94947.52
2019-02-08T02:52:51.550Z,94958.50
2019-02-08T02:55:23.717Z,94951.27
2019-02-08T02:57:54.094Z,94952.20
2019-02-08T03:00:36.554Z,94958.33
2019-02-08T03:03:07.237Z,94951.41
2019-02-08T03:05:38.414Z,94951.55
2019-02-08T03:08:09.784Z,94952.23
2019-02-08T03:10:40.199Z,94942.83
2019-02-08T03:13:11.598Z,94939.76
2019-02-08T03:15:42.057Z,94935.05
2019-02-08T03:18:12.419Z,94934.55
2019-02-08T03:20:43.126Z,94928.14
2019-02-08T03:23:13.461Z,94930.80
2019-02-08T03:25:44.407Z,94918.47
2019-02-08T03:28:15.662Z,94928.18
2019-02-08T03:30:49.310Z,94924.20
2019-02-08T03:33:20.128Z,94924.06
2019-02-08T03:35:50.631Z,94917.08
2019-02-08T03:38:20.919Z,94923.05
2019-02-08T03:40:51.710Z,94913.52
2019-02-08T03:43:22.001Z,94911.91
2019-02-08T03:45:53.683Z,94599.43
2019-02-08T03:48:24.298Z,94902.13
2019-02-08T03:50:54.800Z,94895.81
2019-02-08T03:53:25.070Z,94898.76
2019-02-08T03:55:58.527Z,94900.08
2019-02-08T03:58:27.722Z,94898.22
2019-02-08T04:01:00.831Z,94898.48
2019-02-08T04:03:31.434Z,94895.44
2019-02-08T04:06:02.056Z,94894.27
2019-02-08T04:08:32.738Z,94899.42
2019-02-08T04:11:03.146Z,94890.47
2019-02-08T04:13:33.462Z,94892.05
2019-02-08T04:16:05.747Z,94890.98
2019-02-08T04:18:36.394Z,94893.70
2019-02-08T04:21:06.670Z,94891.53
2019-02-08T04:23:37.481Z,94929.20
2019-02-08T04:26:07.851Z,94892.72
2019-02-08T04:28:38.164Z,94878.77
2019-02-08T04:31:08.474Z,94879.44
2019-02-08T04:33:39.017Z,94884.38
2019-02-08T04:36:09.572Z,94889.84
2019-02-08T04:38:40.350Z,94889.98
2019-02-08T04:41:10.627Z,94895.70
2019-02-08T04:43:41.512Z,94899.25
2019-02-08T04:46:11.907Z,94908.94
2019-02-08T04:48:42.194Z,94903.22
2019-02-08T04:51:12.629Z,94918.27
2019-02-08T04:53:43.293Z,94911.66
2019-02-08T04:56:13.562Z,94912.20
2019-02-08T04:58:43.869Z,94910.48
2019-02-08T05:01:14.265Z,94911.77
2019-02-08T05:03:45.045Z,94913.77
2019-02-08T05:06:15.613Z,94912.39
2019-02-08T05:08:46.147Z,94913.62
2019-02-08T05:11:16.599Z,94908.30
2019-02-08T05:13:47.357Z,94907.09
2019-02-08T05:16:17.629Z,94908.08
2019-02-08T05:18:48.135Z,94916.92
2019-02-08T05:21:18.604Z,94920.86
2019-02-08T05:23:48.915Z,94928.04
2019-02-08T05:26:19.167Z,94927.41
2019-02-08T05:28:49.724Z,94927.17
2019-02-08T05:31:20.152Z,94933.75
2019-02-08T05:33:51.650Z,94928.70
2019-02-08T05:36:22.493Z,94938.17
2019-02-08T05:38:53.317Z,94942.63
2019-02-08T05:41:23.762Z,94941.55
2019-02-08T05:43:54.443Z,94940.13
2019-02-08T05:46:25.039Z,94941.55
2019-02-08T05:48:55.362Z,94937.16
2019-02-08T05:51:25.788Z,94941.83
2019-02-08T05:53:56.248Z,94938.03
2019-02-08T05:56:26.517Z,94949.77
2019-02-08T05:58:56.856Z,94946.64
2019-02-08T06:01:27.495Z,94945.70
2019-02-08T06:03:57.802Z,94948.48
2019-02-08T06:06:28.455Z,94948.34
2019-02-08T06:08:58.764Z,94943.99
2019-02-08T06:11:29.319Z,94944.69
2019-02-08T06:13:59.970Z,94945.59
2019-02-08T06:16:30.428Z,94946.25
2019-02-08T06:19:00.929Z,94945.28
2019-02-08T06:21:31.421Z,94946.31
2019-02-08T06:24:01.770Z,94951.57
2019-02-08T06:26:32.035Z,94954.45
2019-02-08T06:29:02.448Z,94961.86
2019-02-08T06:31:33.001Z,94959.91
2019-02-08T06:34:03.380Z,94965.56
2019-02-08T06:36:33.888Z,94972.59
2019-02-08T06:39:06.115Z,94966.69
2019-02-08T06:41:36.898Z,94970.02
2019-02-08T06:44:07.324Z,94973.25
2019-02-08T06:46:37.600Z,94972.57
2019-02-08T06:49:08.768Z,94968.28
2019-02-08T06:51:39.257Z,94965.80
2019-02-08T06:54:09.825Z,94959.58
2019-02-08T06:56:56.677Z,94955.06
2019-02-08T06:59:54.783Z,94957.48
2019-02-08T07:02:50.213Z,94957.36
2019-02-08T07:05:43.049Z,94958.13
2019-02-08T07:08:44.906Z,94960.36
2019-02-08T07:11:32.645Z,94961.41
2019-02-08T07:14:20.633Z,94953.34
2019-02-08T07:17:15.715Z,94958.81
2019-02-08T07:20:13.181Z,94956.78
2019-02-08T07:23:16.029Z,94968.28
2019-02-08T07:26:14.598Z,94962.19
2019-02-08T07:28:56.793Z,94971.28
2019-02-08T07:31:45.257Z,94970.71
2019-02-08T07:34:22.204Z,94969.28
2019-02-08T07:37:15.337Z,94979.06
2019-02-08T07:40:10.273Z,94986.26
2019-02-08T07:43:00.523Z,94990.65
2019-02-08T07:46:04.313Z,94986.45
2019-02-08T07:48:47.745Z,94984.93
2019-02-08T07:51:36.239Z,94995.56
2019-02-08T07:54:34.522Z,94990.22
2019-02-08T07:57:23.849Z,94996.77
2019-02-08T08:00:07.293Z,94993.50
2019-02-08T08:02:55.901Z,94988.41
2019-02-08T08:05:43.621Z,94991.47
2019-02-08T08:08:38.732Z,94992.63
2019-02-08T08:11:26.992Z,94995.59
2019-02-08T08:14:11.274Z,95001.97
2019-02-08T08:17:00.498Z,95002.03
2019-02-08T08:19:53.366Z,94997.20
2019-02-08T08:22:31.841Z,94997.77
2019-02-08T08:25:22.976Z,94993.76
2019-02-08T08:28:16.697Z,95003.22
2019-02-08T08:30:57.128Z,95004.06
2019-02-08T08:34:01.116Z,95009.19
2019-02-08T08:37:20.593Z,95009.16
2019-02-08T08:40:19.062Z,95004.44
2019-02-08T08:43:15.152Z,95005.98
2019-02-08T08:46:01.717Z,94998.56
2019-02-08T08:49:14.374Z,95002.48
2019-02-08T08:52:25.890Z,94996.91
2019-02-08T08:55:42.284Z,95001.77
2019-02-08T08:58:42.083Z,95000.83
2019-02-08T09:01:38.312Z,95002.70
2019-02-08T09:04:36.262Z,95009.91
2019-02-08T09:07:43.118Z,95013.21
2019-02-08T09:10:47.506Z,95013.26
2019-02-08T09:13:46.444Z,95030.31
2019-02-08T09:17:12.214Z,95030.67
2019-02-08T09:20:19.527Z,95024.35
2019-02-08T09:23:36.632Z,95032.27
2019-02-08T09:26:45.127Z,95022.70
2019-02-08T09:29:40.608Z,95023.77
2019-02-08T09:32:56.942Z,95026.17
2019-02-08T09:36:11.154Z,95019.88
2019-02-08T09:39:24.610Z,95020.41
2019-02-08T09:42:30.955Z,95011.13
2019-02-08T09:45:43.577Z,95012.50
2019-02-08T09:48:35.654Z,95019.89
2019-02-08T09:51:47.155Z,95012.89
2019-02-08T09:55:13.378Z,94729.66
2019-02-08T09:58:21.780Z,95015.83
2019-02-08T10:01:32.699Z,95010.31
2019-02-08T10:04:44.165Z,95009.33
2019-02-08T10:07:47.669Z,95015.42
2019-02-08T10:10:56.846Z,95009.53
2019-02-08T10:14:23.455Z,95009.91
2019-02-08T10:17:43.734Z,95014.11
2019-02-08T10:20:37.760Z,95010.99
2019-02-08T10:23:40.059Z,95011.03
2019-02-08T10:27:06.838Z,95011.31
2019-02-08T10:30:42.081Z,95010.56
2019-02-08T10:33:49.144Z,95019.27
2019-02-08T10:36:50.657Z,95016.26
2019-02-08T10:39:58.052Z,95018.26
2019-02-08T10:43:03.393Z,95015.06
2019-02-08T10:46:33.180Z,95017.83
2019-02-08T10:50:14.877Z,95014.77
2019-02-08T10:53:38.178Z,95007.30
2019-02-08T10:56:46.538Z,95013.65
2019-02-08T11:00:13.540Z,95011.41
2019-02-08T11:03:30.838Z,95008.31
2019-02-08T11:07:06.711Z,95001.36
2019-02-08T11:10:27.418Z,94999.73
2019-02-08T11:13:34.791Z,95001.36
2019-02-08T11:16:51.920Z,94990.64
2019-02-08T11:19:23.788Z,95000.14
2019-02-08T11:21:54.600Z,94989.14
2019-02-08T11:24:26.269Z,94997.33
2019-02-08T11:26:58.700Z,94996.50
2019-02-08T11:29:29.483Z,94994.53
2019-02-08T11:31:59.754Z,94996.05
2019-02-08T11:34:30.577Z,94994.88
2019-02-08T11:37:01.426Z,94987.20
2019-02-08T11:39:31.752Z,94989.63
2019-02-08T11:42:02.774Z,94986.23
2019-02-08T11:44:33.092Z,94988.33
2019-02-08T11:47:03.651Z,94984.02
2019-02-08T11:49:34.410Z,94990.27
2019-02-08T11:52:04.777Z,94990.53
2019-02-08T11:54:35.108Z,94981.00
2019-02-08T11:57:06.798Z,94987.31
2019-02-08T11:59:37.117Z,94982.51
2019-02-08T12:02:07.631Z,94988.14
2019-02-08T12:04:38.453Z,94988.02
2019-02-08T12:07:11.874Z,94989.12
2019-02-08T12:09:42.226Z,94985.47
2019-02-08T12:12:12.837Z,94987.95
2019-02-08T12:14:43.146Z,94980.34
2019-02-08T12:17:13.927Z,94982.59
2019-02-08T12:19:44.213Z,94980.79
2019-02-08T12:22:14.734Z,94986.48
2019-02-08T12:24:45.487Z,94984.78
2019-02-08T12:27:16.259Z,94987.67
2019-02-08T12:29:46.524Z,94986.08
2019-02-08T12:32:17.082Z,94991.97
2019-02-08T12:34:47.738Z,94986.35
2019-02-08T12:37:18.008Z,94986.20
2019-02-08T12:39:48.671Z,94985.42
2019-02-08T12:42:19.437Z,94982.89
2019-02-08T12:44:49.718Z,94984.09
2019-02-08T12:47:20.166Z,94983.34
2019-02-08T12:49:50.853Z,94978.92
2019-02-08T12:52:21.130Z,94983.59
2019-02-08T12:54:51.399Z,94985.39
2019-02-08T12:57:21.803Z,94983.34
2019-02-08T12:59:52.100Z,94988.10
2019-02-08T13:02:22.359Z,94984.98
2019-02-08T13:04:53.432Z,94991.17
2019-02-08T13:07:23.930Z,94987.03
2019-02-08T13:09:55.362Z,94985.70
2019-02-08T13:12:26.075Z,94979.63
2019-02-08T13:14:56.840Z,94987.20
2019-02-08T13:17:27.503Z,94989.08
2019-02-08T13:19:57.932Z,94986.63
2019-02-08T13:22:28.607Z,94979.62
2019-02-08T13:24:59.330Z,94988.53
2019-02-08T13:27:29.657Z,94985.33
2019-02-08T13:29:59.942Z,94982.00
2019-02-08T13:32:30.621Z,94993.62
2019-02-08T13:35:02.503Z,94991.43
2019-02-08T13:37:32.784Z,94987.39
2019-02-08T13:40:03.573Z,94992.11
2019-02-08T13:42:34.152Z,94987.92
2019-02-08T13:45:05.237Z,94988.45
2019-02-08T13:47:35.802Z,94990.11
2019-02-08T13:50:09.334Z,94989.25
2019-02-08T13:52:39.831Z,94984.31
2019-02-08T13:55:11.555Z,94989.27
2019-02-08T13:57:41.821Z,94980.08
2019-02-08T14:00:18.569Z,94976.97
2019-02-08T14:02:49.215Z,94988.56
2019-02-08T14:05:19.879Z,94972.75
2019-02-08T14:07:50.276Z,94978.34
2019-02-08T14:10:21.146Z,94977.85
2019-02-08T14:12:51.438Z,94980.00
2019-02-08T14:15:22.523Z,94976.83
2019-02-08T14:17:53.111Z,94974.39
2019-02-08T14:20:24.611Z,94981.98
2019-02-08T14:22:56.540Z,94983.70
2019-02-08T14:25:27.030Z,94985.98
2019-02-08T14:27:57.444Z,94988.39
2019-02-08T14:30:32.458Z,94986.40
2019-02-08T14:33:02.836Z,94993.95
2019-02-08T14:35:33.508Z,94994.38
2019-02-08T14:38:05.646Z,95000.85
2019-02-08T14:40:36.557Z,94999.64
2019-02-08T14:43:06.834Z,94995.41
2019-02-08T14:45:37.503Z,94994.68
2019-02-08T14:48:08.117Z,95002.05
2019-02-08T14:50:38.665Z,95003.39
2019-02-08T14:53:09.545Z,95002.58
2019-02-08T14:55:40.371Z,94999.70
2019-02-08T14:58:10.970Z,94995.77
2019-02-08T15:00:41.532Z,94996.14
2019-02-08T15:03:11.910Z,94997.97
2019-02-08T15:05:43.156Z,95003.14
2019-02-08T15:08:13.685Z,95003.90
2019-02-08T15:10:46.649Z,95005.68
2019-02-08T15:13:17.042Z,95007.67
2019-02-08T15:15:47.574Z,95003.48
2019-02-08T15:18:18.737Z,94999.56
2019-02-08T15:20:49.129Z,95003.09
2019-02-08T15:23:19.469Z,94999.09
2019-02-08T15:25:50.305Z,94996.88
2019-02-08T15:28:20.646Z,95002.72
2019-02-08T15:30:51.218Z,95004.88
2019-02-08T15:33:21.494Z,94999.80
2019-02-08T15:35:51.882Z,94997.89
2019-02-08T15:38:22.545Z,94989.27
2019-02-08T15:40:55.364Z,95001.36
2019-02-08T15:43:26.360Z,95002.92
2019-02-08T15:45:59.544Z,94999.27
2019-02-08T15:48:30.166Z,94999.05
2019-02-08T15:51:01.542Z,95005.55
2019-02-08T15:53:32.197Z,95006.48
2019-02-08T15:56:09.506Z,95007.34
2019-02-08T15:58:40.011Z,95009.64
2019-02-08T16:01:11.896Z,95011.92
2019-02-08T16:03:43.191Z,95012.23
2019-02-08T16:06:13.588Z,95009.92
2019-02-08T16:08:44.114Z,95010.44
2019-02-08T16:11:14.459Z,95011.36
2019-02-08T16:13:45.186Z,95014.06
2019-02-08T16:16:16.116Z,95026.48
2019-02-08T16:18:46.570Z,95023.31
2019-02-08T16:21:17.443Z,95032.98
2019-02-08T16:23:48.073Z,95026.82
2019-02-08T16:26:18.500Z,95028.37
2019-02-08T16:28:48.938Z,95025.25
2019-02-08T16:31:19.333Z,95031.93
2019-02-08T16:33:50.103Z,95037.05
2019-02-08T16:36:20.499Z,95028.11
2019-02-08T16:38:50.841Z,95029.92
2019-02-08T16:41:21.518Z,95038.97
2019-02-08T16:43:52.321Z,95039.85
2019-02-08T16:46:22.637Z,95044.72
2019-02-08T16:48:53.085Z,95041.27
2019-02-08T16:51:23.961Z,95037.40
2019-02-08T16:53:54.270Z,95042.15
2019-02-08T16:56:24.735Z,95045.32
2019-02-08T16:58:55.488Z,95044.77
2019-02-08T17:01:25.792Z,95047.48
2019-02-08T17:03:56.170Z,95042.95
2019-02-08T17:06:26.528Z,95042.70
2019-02-08T17:08:56.908Z,95045.88
2019-02-08T17:11:27.475Z,95050.79
2019-02-08T17:13:57.801Z,95047.78
2019-02-08T17:16:28.216Z,95050.78
2019-02-08T17:18:58.817Z,95056.33
2019-02-08T17:21:29.528Z,95060.38
2019-02-08T17:23:59.811Z,95052.45
2019-02-08T17:26:30.461Z,95060.28
2019-02-08T17:29:00.991Z,95062.03
2019-02-08T17:31:31.316Z,95059.32
2019-02-08T17:34:02.745Z,95063.33
2019-02-08T17:36:33.082Z,95070.86
2019-02-08T17:39:05.345Z,95065.81
2019-02-08T17:41:35.633Z,95070.17
2019-02-08T17:44:06.153Z,95074.20
2019-02-08T17:46:36.828Z,95069.77
2019-02-08T17:49:07.308Z,95072.30
2019-02-08T17:51:37.619Z,95074.45
2019-02-08T17:54:08.561Z,95078.59
2019-02-08T17:56:39.222Z,95074.63
2019-02-08T17:59:11.364Z,95083.28
2019-02-08T18:01:42.053Z,95085.05
2019-02-08T18:04:12.421Z,95083.66
2019-02-08T18:06:42.805Z,95083.16
2019-02-08T18:09:13.266Z,95086.34
2019-02-08T18:11:43.599Z,95093.55
2019-02-08T18:14:15.063Z,94829.38
2019-02-08T18:16:45.798Z,95088.43
2019-02-08T18:19:16.120Z,95092.86
2019-02-08T18:21:46.727Z,95096.30
2019-02-08T18:24:17.407Z,95091.25
2019-02-08T18:26:47.900Z,95096.55
2019-02-08T18:29:18.238Z,95099.55
2019-02-08T18:31:48.949Z,95100.00
2019-02-08T18:34:19.273Z,95098.16
2019-02-08T18:36:49.610Z,95104.78
2019-02-08T18:39:20.169Z,95101.47
2019-02-08T18:41:50.854Z,95097.66
2019-02-08T18:44:21.454Z,95099.86
2019-02-08T18:46:52.150Z,95099.78
2019-02-08T18:49:22.721Z,95097.72
2019-02-08T18:51:53.521Z,95099.50
2019-02-08T18:54:23.818Z,95099.30
2019-02-08T18:56:54.168Z,95100.30
2019-02-08T18:59:24.961Z,95106.44
2019-02-08T19:01:55.220Z,95101.39
2019-02-08T19:04:25.773Z,95110.11
2019-02-08T19:06:56.519Z,95107.34
2019-02-08T19:09:26.979Z,95109.81
2019-02-08T19:11:57.294Z,95119.14
2019-02-08T19:14:27.840Z,95108.78
2019-02-08T19:16:58.418Z,95111.84
2019-02-08T19:19:28.763Z,95112.81
2019-02-08T19:21:59.524Z,95116.31
2019-02-08T19:24:30.326Z,95123.08
2019-02-08T19:27:00.607Z,95124.36
2019-02-08T19:29:31.141Z,95123.03
2019-02-08T19:32:01.523Z,95124.37
2019-02-08T19:34:32.118Z,95133.71
2019-02-08T19:37:03.067Z,95133.36
2019-02-08T19:39:33.747Z,95129.11
2019-02-08T19:42:04.123Z,95136.55
2019-02-08T19:44:34.928Z,95136.13
2019-02-08T19:47:05.285Z,95138.57
2019-02-08T19:49:35.823Z,95139.75
2019-02-08T19:52:06.878Z,95143.17
2019-02-08T19:54:37.207Z,95143.06
2019-02-08T19:57:07.475Z,95149.20
2019-02-08T19:59:38.026Z,95143.80
2019-02-08T20:02:08.291Z,95143.48
2019-02-08T20:04:38.712Z,95143.73
2019-02-08T20:07:09.538Z,95146.06
2019-02-08T20:09:40.219Z,95143.34
2019-02-08T20:12:10.490Z,95150.60
2019-02-08T20:14:41.185Z,95150.11
2019-02-08T20:17:11.781Z,95143.10
2019-02-08T20:19:42.400Z,95147.52
2019-02-08T20:22:12.899Z,95148.94
2019-02-08T20:24:43.168Z,95157.11
2019-02-08T20:27:13.874Z,95151.19
2019-02-08T20:29:44.183Z,95154.69
2019-02-08T20:32:14.473Z,95156.67
2019-02-08T20:34:45.443Z,95157.64
2019-02-08T20:37:16.308Z,95158.20
2019-02-08T20:39:47.052Z,95153.37
2019-02-08T20:42:17.853Z,95151.37
2019-02-08T20:44:48.831Z,95152.15
2019-02-08T20:47:19.219Z,95152.64
2019-02-08T20:49:49.755Z,95166.96
2019-02-08T20:52:20.036Z,95153.02
2019-02-08T20:54:50.770Z,95148.34
2019-02-08T20:57:21.332Z,95148.80
2019-02-08T20:59:51.654Z,95151.55
2019-02-08T21:02:22.934Z,95148.34
2019-02-08T21:04:53.896Z,95144.59
2019-02-08T21:07:24.175Z,95145.20
2019-02-08T21:09:55.032Z,95146.34
2019-02-08T21:12:26.600Z,95136.69
2019-02-08T21:14:57.099Z,95140.03
2019-02-08T21:17:27.407Z,95144.03
2019-02-08T21:19:58.131Z,95145.84
2019-02-08T21:22:28.918Z,95150.14
2019-02-08T21:24:59.310Z,95143.79
2019-02-08T21:27:29.577Z,95142.50
2019-02-08T21:29:59.958Z,95142.65
2019-02-08T21:32:30.730Z,95152.80
2019-02-08T21:35:01.351Z,95154.48
2019-02-08T21:37:31.650Z,95152.32
2019-02-08T21:40:02.618Z,95155.38
2019-02-08T21:42:32.929Z,95156.78
2019-02-08T21:45:03.234Z,95150.89
2019-02-08T21:47:34.010Z,95155.55
2019-02-08T21:50:05.882Z,95155.23
2019-02-08T21:52:36.719Z,95154.95
2019-02-08T21:55:08.509Z,95157.58
2019-02-08T21:57:38.814Z,95159.78
2019-02-08T22:00:23.869Z,95160.09
2019-02-08T22:02:54.568Z,95164.93
2019-02-08T22:05:27.903Z,95163.50
2019-02-08T22:07:58.639Z,95165.86
2019-02-08T22:10:29.384Z,95168.91
2019-02-08T22:12:59.678Z,95166.23
2019-02-08T22:15:34.902Z,95161.28
2019-02-08T22:18:06.577Z,95171.92
2019-02-08T22:20:37.126Z,95169.58
2019-02-08T22:23:07.764Z,95175.23
2019-02-08T22:25:38.090Z,95171.00
2019-02-08T22:28:08.721Z,95180.30
2019-02-08T22:30:39.782Z,95175.32
2019-02-08T22:33:10.194Z,95174.84
2019-02-08T22:35:41.375Z,95178.11
2019-02-08T22:38:12.247Z,95173.14
2019-02-08T22:40:42.590Z,95174.91
2019-02-08T22:43:13.396Z,95177.99
2019-02-08T22:45:44.309Z,95168.83
2019-02-08T22:48:14.596Z,95168.77
2019-02-08T22:50:45.056Z,95173.72
2019-02-08T22:53:15.405Z,95176.80
2019-02-08T22:55:45.880Z,95172.84
2019-02-08T22:58:16.232Z,95177.09
2019-02-08T23:01:30.937Z,95180.38
2019-02-08T23:04:03.958Z,95173.88
2019-02-08T23:06:34.820Z,95177.39
2019-02-08T23:09:25.587Z,95172.64
2019-02-08T23:11:56.180Z,95174.13
2019-02-08T23:14:26.877Z,95169.17
2019-02-08T23:16:57.145Z,95173.09
2019-02-08T23:19:27.687Z,95161.54
2019-02-08T23:21:58.449Z,95162.50
2019-02-08T23:24:28.708Z,95170.60
2019-02-08T23:26:59.003Z,95162.19
2019-02-08T23:29:30.574Z,95162.94
2019-02-08T23:32:01.250Z,95162.14
2019-02-08T23:34:31.641Z,95164.98
2019-02-08T23:37:02.466Z,95164.59
2019-02-08T23:39:33.180Z,95162.89
2019-02-08T23:42:03.492Z,95167.63
2019-02-08T23:44:34.139Z,95162.08
2019-02-08T23:47:04.909Z,95157.66
2019-02-08T23:49:35.569Z,95159.52
2019-02-08T23:52:06.089Z,95154.53
2019-02-08T23:54:36.699Z,95164.98
2019-02-08T23:57:08.067Z,95156.77
2019-02-08T23:59:38.534Z,95158.81
